Latest Weather Observations for Warwick

IDQ60801

Issued at 8:52 pm EST Thursday 22 November 2018 (issued every 10 minutes, with the page automatically refreshed every 10 minutes)

About weather observations | Map of weather stations | Latest weather observations for QLD | Other Formats
Station Details ID: 041525 Name: WARWICK Lat: -28.21 Lon: 152.10 Height: 475.4 m
Data from the previous 72 hours. | See also: Recent months at Warwick
Date/Time
EST
Temp
°C
App
Temp
°C
Dew
Point
°C
Rel
Hum
%
Delta-T
°C
Wind Press
QNH
hPa
Press
MSL
hPa
Rain since
9am
mm
Dir  Spd
km/h
Gust
km/h
Spd
kts
Gust
kts
22/08:30pm 19.2 16.6 9.2 52 5.4 W 13 20 7 11 1008.4 1006.2 5.2
22/08:00pm 19.5 17.0 9.6 52 5.4 W 13 20 7 11 1007.8 1005.7 5.2
22/07:30pm 20.2 16.8 9.2 49 6.0 W 17 28 9 15 1007.2 1005.0 5.2
22/07:00pm 20.4 17.6 9.9 51 5.8 W 15 26 8 14 1006.7 1004.5 5.2
22/06:30pm 21.1 18.2 9.7 48 6.3 W 15 24 8 13 1006.3 1004.1 5.2
22/06:00pm 22.3 17.8 8.7 41 7.4 W 22 35 12 19 1005.6 1003.5 5.2
22/05:30pm 23.4 19.4 8.9 39 8.0 W 20 35 11 19 1005.3 1003.1 5.2
22/05:00pm 24.1 19.0 9.1 38 8.3 WSW 26 41 14 22 1005.2 1003.0 5.2
22/04:30pm 24.9 20.7 9.6 38 8.6 W 22 37 12 20 1005.0 1002.8 5.2
22/04:04pm 25.2 20.1 10.7 40 8.3 WSW 28 46 15 25 1004.8 1002.6 5.2
22/04:00pm 25.2 19.6 10.3 39 8.5 WSW 30 46 16 25 1004.7 1002.5 5.2
22/03:30pm 25.6 20.0 10.1 37 8.8 W 30 48 16 26 1004.8 1002.6 5.2
22/03:27pm 26.1 20.9 10.4 37 9.0 W 28 48 15 26 1004.8 1002.6 5.2
22/03:00pm 25.3 20.3 11.1 41 8.2 W 28 43 15 23 1005.0 1002.8 5.2
22/02:38pm 26.4 21.6 11.5 39 8.7 W 28 46 15 25 1004.8 1002.6 5.2
22/02:30pm 25.9 20.6 11.2 39 8.5 W 30 46 16 25 1004.9 1002.7 5.2
22/02:14pm 26.1 21.3 11.5 40 8.5 W 28 46 15 25 1005.1 1002.9 5.2
22/02:00pm 25.4 19.9 11.7 42 8.0 W 32 46 17 25 1005.2 1003.0 5.2
22/01:52pm 25.2 20.4 11.6 42 7.9 W 28 46 15 25 1005.3 1003.1 5.2
22/01:30pm 25.6 21.5 12.6 44 7.7 W 26 41 14 22 1005.4 1003.2 5.2
22/01:05pm 25.1 20.4 12.1 44 7.6 W 28 52 15 28 1005.7 1003.6 5.2
22/01:00pm 25.2 20.7 12.7 45 7.4 WSW 28 43 15 23 1005.6 1003.5 5.2
22/12:30pm 25.1 21.5 13.2 47 7.1 W 24 41 13 22 1005.9 1003.8 5.2
22/12:00pm 23.8 19.7 12.8 50 6.5 W 26 43 14 23 1006.3 1004.1 5.2
22/11:30am 23.5 21.7 15.9 62 4.7 W 20 35 11 19 1006.5 1004.3 5.2
22/11:00am 21.3 20.2 16.3 73 3.1 WNW 17 26 9 14 1007.1 1004.9 5.2
22/10:30am 18.8 18.0 16.0 84 1.7 NNW 15 20 8 11 1007.6 1005.5 5.2
22/10:00am 17.5 17.0 15.8 90 1.0 NNW 13 20 7 11 1007.8 1005.7 5.2
22/09:30am 16.6 15.3 15.8 95 0.5 WNW 17 30 9 16 1008.0 1005.9 4.4
22/09:00am 17.1 15.6 16.4 96 0.4 W 19 35 10 19 1007.9 1005.8 12.6
22/08:45am 17.2 14.8 16.5 96 0.4 W 24 46 13 25 1007.7 1005.6 9.0
22/08:30am 21.4 20.6 19.2 87 1.4 NW 22 39 12 21 1006.6 1004.4 4.0
22/08:00am 22.0 21.2 19.2 84 1.8 NW 22 35 12 19 1006.6 1004.4 3.8
22/07:30am 21.6 21.4 19.3 87 1.5 NW 19 32 10 17 1006.7 1004.5 3.8
22/07:00am 21.2 20.4 19.2 88 1.3 NW 22 39 12 21 1006.7 1004.5 3.8
22/06:30am 20.8 20.3 19.1 90 1.1 NW 20 32 11 17 1006.5 1004.3 3.8
22/06:00am 20.4 19.9 19.2 93 0.8 NW 20 33 11 18 1006.4 1004.2 3.8
22/05:30am 20.7 20.6 18.8 89 1.2 NNW 17 22 9 12 1006.3 1004.1 1.8
22/05:00am 20.8 21.0 18.6 87 1.4 NW 15 24 8 13 1005.7 1003.6 1.6
22/04:30am 20.7 21.0 18.7 88 1.3 NNW 15 24 8 13 1005.7 1003.6 1.6
22/04:00am 20.5 21.6 18.8 90 1.1 N 11 20 6 11 1005.6 1003.5 1.6
22/03:30am 20.3 20.6 18.7 90 1.0 NNW 15 24 8 13 1005.8 1003.7 1.6
22/03:00am 20.2 20.2 19.0 93 0.8 N 17 28 9 15 1006.1 1003.9 1.6
22/02:30am 20.2 20.1 18.8 92 0.9 NNW 17 24 9 13 1006.4 1004.2 1.6
22/02:00am 20.1 21.0 19.2 95 0.6 NNW 13 20 7 11 1006.8 1004.6 1.6
22/01:30am 20.3 21.2 19.2 93 0.7 NNW 13 22 7 12 1007.0 1004.8 1.6
22/01:00am 20.5 22.2 19.3 93 0.8 NNW 9 17 5 9 1007.2 1005.0 1.6
22/12:30am 20.5 21.7 19.1 92 0.9 NW 11 19 6 10 1007.6 1005.5 1.6
22/12:00am 20.2 21.6 18.6 90 1.0 NNW 9 15 5 8 1007.9 1005.8 1.6
 
Date/Time
EST
Temp
°C
App
Temp
°C
Dew
Point
°C
Rel
Hum
%
Delta-T
°C
Wind Press
QNH
hPa
Press
MSL
hPa
Rain since
9am
mm
Dir  Spd
km/h
Gust
km/h
Spd
kts
Gust
kts
21/11:30pm 20.2 20.6 18.1 88 1.3 NW 13 19 7 10 1008.5 1006.3 1.6
21/11:00pm 20.3 21.3 18.7 90 1.0 NNW 11 17 6 9 1009.1 1006.9 1.6
21/10:30pm 20.4 20.8 18.2 87 1.4 NNW 13 19 7 10 1009.3 1007.2 1.6
21/10:00pm 20.5 21.2 18.8 90 1.1 NNW 13 19 7 10 1009.5 1007.4 1.6
21/09:30pm 20.5 21.6 18.9 90 1.0 NNW 11 17 6 9 1009.8 1007.7 1.6
21/09:00pm 20.5 21.7 19.1 92 0.9 NNW 11 17 6 9 1009.9 1007.8 1.6
21/08:30pm 20.6 21.9 19.4 93 0.8 NW 11 20 6 11 1009.8 1007.7 1.6
21/08:00pm 20.7 21.7 19.5 93 0.8 NW 13 22 7 12 1009.5 1007.4 1.4
21/07:30pm 20.6 21.2 19.4 93 0.8 WNW 15 24 8 13 1009.2 1007.0 1.4
21/07:00pm 20.6 21.2 19.5 93 0.7 WNW 15 20 8 11 1009.2 1007.0 1.2
21/06:30pm 20.9 21.9 19.4 91 1.0 WNW 13 24 7 13 1009.1 1006.9 0.0
21/06:00pm 21.7 21.2 18.7 83 1.9 W 19 28 10 15 1008.8 1006.6 0.0
21/05:30pm 22.3 21.6 18.6 79 2.4 W 20 37 11 20 1008.2 1006.1 0.0
21/05:15pm 22.4 19.4 18.7 79 2.4 W 32 50 17 27 1008.1 1006.0 0.0
21/05:07pm 23.4 20.1 18.3 73 3.3 WNW 33 65 18 35 1007.8 1005.7 0.0
21/05:04pm 25.9 21.8 16.0 54 6.2 WNW 32 65 17 35 1007.2 1005.0 0.0
21/05:00pm 27.0 23.6 14.8 47 7.5 WNW 26 43 14 23 1006.8 1004.6 0.0
21/04:30pm 27.1 26.0 15.4 48 7.3 NW 15 24 8 13 1006.5 1004.3 0.0
21/04:00pm 25.8 25.8 18.0 62 5.0 SW 15 20 8 11 1006.7 1004.5 0.0
21/03:30pm 26.3 26.8 17.4 58 5.7 WSW 11 17 6 9 1006.7 1004.5 0.0
21/03:00pm 26.1 26.5 18.2 61 5.1 W 13 20 7 11 1007.0 1004.8 0.0
21/02:30pm 26.2 25.0 17.1 57 5.8 WSW 19 28 10 15 1007.3 1005.1 0.0
21/02:00pm 25.6 23.7 17.6 61 5.1 WSW 24 43 13 23 1007.5 1005.4 0.0
21/01:32pm 28.5 24.8 15.0 43 8.4 WNW 28 46 15 25 1006.8 1004.6 0.0
21/01:30pm 28.1 24.8 14.9 44 8.2 WNW 26 46 14 25 1006.8 1004.6 0.0
21/01:18pm 29.3 25.3 14.0 39 9.4 WNW 28 48 15 26 1006.9 1004.7 0.0
21/01:00pm 30.0 26.9 14.5 38 9.6 NW 24 39 13 21 1007.0 1004.8 0.0
21/12:30pm 29.9 25.5 14.2 38 9.7 WNW 30 44 16 24 1007.3 1005.1 0.0
21/12:15pm 30.1 26.1 14.2 38 9.8 WNW 28 46 15 25 1007.3 1005.1 0.0
21/12:00pm 30.4 27.1 14.9 39 9.7 NW 26 44 14 24 1007.5 1005.4 0.0
21/11:30am 30.2 26.7 14.4 38 9.8 NW 26 44 14 24 1008.1 1006.0 0.0
21/11:15am 30.8 27.1 13.9 35 10.4 NW 26 46 14 25 1008.4 1006.2 0.0
21/11:00am 30.7 27.6 14.4 37 10.1 NNW 24 41 13 22 1008.7 1006.5 0.0
21/10:30am 29.0 25.0 14.0 39 9.2 NW 28 41 15 22 1009.5 1007.4 0.0
21/10:12am 28.6 24.4 13.6 39 9.1 NW 28 46 15 25 1009.8 1007.7 0.0
21/10:00am 27.9 24.4 13.5 41 8.7 NW 24 41 13 22 1010.3 1008.2 0.0
21/09:30am 27.3 24.2 13.4 42 8.4 NW 22 39 12 21 1010.7 1008.5 0.0
21/09:00am 25.6 22.4 13.2 46 7.4 NW 22 37 12 20 1011.0 1008.8 0.0
21/08:30am 24.6 21.4 13.1 48 6.8 NNW 22 35 12 19 1011.6 1009.5 0.0
21/08:00am 23.3 20.5 13.3 53 5.9 NW 20 30 11 16 1011.8 1009.7 0.0
21/07:30am 22.0 19.3 13.5 58 5.0 NW 20 28 11 15 1011.8 1009.7 0.0
21/07:00am 21.3 18.5 13.3 60 4.7 NNW 20 30 11 16 1011.7 1009.6 0.0
21/06:30am 20.6 18.9 13.6 64 4.1 NNW 15 24 8 13 1011.2 1009.1 0.0
21/06:00am 19.4 18.5 13.6 69 3.4 NNW 11 17 6 9 1011.1 1008.9 0.0
21/05:30am 18.3 18.6 13.5 73 2.8 N 4 13 2 7 1011.1 1008.9 0.0
21/05:00am 17.2 17.1 13.8 80 2.0 WNW 7 9 4 5 1010.9 1008.7 0.0
21/04:30am 18.1 17.5 13.6 75 2.6 NW 9 13 5 7 1010.4 1008.3 0.0
21/04:00am 18.4 18.8 13.6 73 2.8 WNW 4 9 2 5 1010.4 1008.3 0.0
21/03:30am 19.4 17.6 13.4 68 3.5 NNW 15 22 8 12 1010.2 1008.1 0.0
21/03:00am 19.3 17.5 13.3 68 3.5 N 15 20 8 11 1009.8 1007.7 0.0
21/02:30am 19.8 18.4 13.5 67 3.7 NNW 13 17 7 9 1010.6 1008.4 0.0
21/02:00am 20.3 18.1 13.3 64 4.1 N 17 22 9 12 1011.0 1008.8 0.0
21/01:30am 19.9 19.0 13.6 67 3.7 N 11 17 6 9 1011.2 1009.1 0.0
21/01:00am 20.1 20.9 13.6 66 3.8 E 2 11 1 6 1011.8 1009.7 0.0
21/12:30am 20.8 19.1 13.5 63 4.3 N 15 20 8 11 1012.4 1010.3 0.0
21/12:00am 20.8 18.6 13.3 62 4.4 N 17 22 9 12 1012.4 1010.3 0.0
 
Date/Time
EST
Temp
°C
App
Temp
°C
Dew
Point
°C
Rel
Hum
%
Delta-T
°C
Wind Press
QNH
hPa
Press
MSL
hPa
Rain since
9am
mm
Dir  Spd
km/h
Gust
km/h
Spd
kts
Gust
kts
20/11:30pm 20.9 18.7 13.2 61 4.5 N 17 24 9 13 1012.9 1010.7 0.0
20/11:00pm 21.4 19.2 13.2 59 4.8 N 17 22 9 12 1013.2 1011.1 0.0
20/10:30pm 21.8 19.6 13.3 58 5.0 NNE 17 26 9 14 1012.9 1010.7 0.0
20/10:00pm 21.7 19.5 13.2 58 5.0 NE 17 22 9 12 1012.3 1010.2 0.0
20/09:30pm 21.6 19.4 13.2 59 4.9 NNE 17 19 9 10 1012.5 1010.4 0.0
20/09:00pm 21.8 19.2 13.3 58 5.0 NNE 19 26 10 14 1012.5 1010.4 0.0
20/08:30pm 21.8 19.2 13.1 57 5.1 NE 19 30 10 16 1011.8 1009.7 0.0
20/08:00pm 22.1 19.5 13.1 56 5.3 NNE 19 24 10 13 1011.4 1009.3 0.0
20/07:30pm 22.7 19.7 12.6 53 5.9 NE 20 28 11 15 1010.9 1008.7 0.0
20/07:00pm 23.3 20.2 12.3 50 6.4 NE 20 28 11 15 1010.6 1008.4 0.0
20/06:30pm 24.4 21.0 11.4 44 7.5 NE 20 24 11 13 1010.4 1008.3 0.0
20/06:00pm 25.4 22.0 11.4 41 8.1 NNE 20 26 11 14 1010.2 1008.1 0.0
20/05:30pm 26.0 22.8 11.3 39 8.5 NNE 19 28 10 15 1010.4 1008.3 0.0
20/05:00pm 26.2 23.4 11.2 39 8.7 N 17 24 9 13 1010.4 1008.3 0.0
20/04:30pm 26.4 22.9 11.0 38 8.9 N 20 30 11 16 1010.7 1008.5 0.0
20/04:00pm 26.6 24.0 12.0 40 8.6 N 17 22 9 12 1011.0 1008.8 0.0
20/03:30pm 27.3 24.4 10.9 36 9.5 NNW 17 30 9 16 1011.2 1009.1 0.0
20/03:00pm 27.0 24.7 11.6 38 9.0 NNW 15 26 8 14 1011.4 1009.3 0.0
20/02:30pm 27.0 24.4 12.1 39 8.8 NNW 17 26 9 14 1011.8 1009.7 0.0
20/02:00pm 28.4 26.5 10.4 32 10.4 NW 11 19 6 10 1011.7 1009.6 0.0
20/01:30pm 27.5 25.4 11.2 36 9.5 NNW 13 22 7 12 1012.5 1010.4 0.0
20/01:00pm 28.3 25.6 11.6 35 9.8 NW 17 33 9 18 1013.2 1011.1 0.0
20/12:30pm 27.1 24.7 11.5 37 9.1 NNW 15 28 8 15 1013.6 1011.5 0.0
20/12:00pm 27.4 24.8 11.9 38 9.1 NNW 17 28 9 15 1014.3 1012.2 0.0
20/11:30am 26.6 24.4 12.2 40 8.5 NW 15 32 8 17 1014.8 1012.7 0.0
20/11:00am 25.9 24.8 11.8 41 8.2 WNW 9 22 5 12 1015.4 1013.3 0.0
20/10:30am 25.1 23.4 12.3 45 7.5 NW 13 22 7 12 1015.9 1013.8 0.0
20/10:00am 23.9 22.6 12.4 48 6.7 NE 11 24 6 13 1016.5 1014.4 0.0
20/09:30am 24.4 23.7 12.0 46 7.2 SW 7 11 4 6 1016.8 1014.8 0.0
20/09:00am 22.6 21.9 11.4 49 6.4 NNE 6 15 3 8 1017.3 1015.2 0.0
20/08:30am 22.3 21.6 11.4 50 6.2 N 6 11 3 6 1017.8 1015.7 0.0
20/08:00am 20.5 19.9 11.7 57 5.0 SE 6 9 3 5 1017.8 1015.7 0.0
20/07:30am 19.0 18.4 11.7 62 4.1 ENE 6 11 3 6 1017.9 1015.8 0.0
20/07:00am 16.9 15.4 10.7 67 3.4 ENE 9 11 5 6 1018.1 1016.0 0.0
20/06:30am 14.7 14.5 10.4 75 2.3 E 2 9 1 5 1018.5 1016.4 0.0
20/06:00am 15.0 14.5 10.7 75 2.3 NE 4 9 2 5 1018.4 1016.3 0.0
20/05:30am 12.5 12.5 9.8 83 1.4 CALM 0 0 0 0 1018.0 1015.9 0.0
20/05:00am 12.4 12.6 10.7 89 0.9 CALM 0 0 0 0 1017.9 1015.8 0.0
20/04:30am 11.7 11.8 10.0 89 0.9 CALM 0 0 0 0 1017.5 1015.4 0.0
20/04:00am 11.6 10.5 10.1 90 0.8 W 6 7 3 4 1017.3 1015.2 0.0
20/03:30am 11.3 11.2 9.4 88 1.0 CALM 0 0 0 0 1016.7 1014.7 0.0
20/03:00am 12.1 12.1 9.8 86 1.2 CALM 0 0 0 0 1016.7 1014.7 0.0
20/02:30am 12.1 12.3 10.4 89 0.9 CALM 0 0 0 0 1017.1 1015.1 0.0
20/02:00am 12.4 12.6 10.5 88 1.0 CALM 0 0 0 0 1017.1 1015.1 0.0
20/01:30am 12.8 13.1 10.9 88 1.0 CALM 0 0 0 0 1017.5 1015.4 0.0
20/01:00am 14.0 14.2 10.6 80 1.8 CALM 0 7 0 4 1017.5 1015.4 0.0
20/12:30am 14.9 15.1 10.4 74 2.4 CALM 0 6 0 3 1018.0 1015.9 0.0
20/12:00am 15.9 14.7 10.3 69 3.0 ENE 7 9 4 5 1018.4 1016.3 0.0
 
Date/Time
EST
Temp
°C
App
Temp
°C
Dew
Point
°C
Rel
Hum
%
Delta-T
°C
Wind Press
QNH
hPa
Press
MSL
hPa
Rain since
9am
mm
Dir  Spd
km/h
Gust
km/h
Spd
kts
Gust
kts
19/11:30pm 15.6 14.4 10.4 71 2.8 ENE 7 13 4 7 1018.5 1016.4 0.0
19/11:00pm 15.4 14.5 10.8 74 2.5 E 6 7 3 4 1018.7 1016.7 0.0
19/10:30pm 15.7 14.7 10.9 73 2.6 ENE 7 11 4 6 1018.7 1016.7 0.0
19/10:00pm 15.9 14.1 10.7 71 2.8 NE 11 13 6 7 1018.7 1016.7 0.0
19/09:30pm 17.2 15.1 11.0 67 3.4 ENE 13 19 7 10 1018.8 1016.8 0.0
19/09:00pm 17.5 14.7 11.2 66 3.5 NE 17 20 9 11 1018.7 1016.7 0.0

Other Formats:

Comma delimited format used in spreadsheet applications
http://www.bom.gov.au/fwo/IDQ60801/IDQ60801.94555.axf

JavaScript Object Notation format (JSON) in row-major order
http://www.bom.gov.au/fwo/IDQ60801/IDQ60801.94555.json